Time;durP1;ratioP1;P1;durP2;ratioP2;P2;SDS_P1;SDS_P2;PMS_P1;PMS_P2;Temp;Humidity;BMP_temperature;BMP_pressure;BME280_temperature;BME280_humidity;BME280_pressure;Samples;Min_cycle;Max_cycle;Signal;HPM_P1;HPM_P2
2023/05/12 00:02:04;;;;;;;8.00;7.40;;;;;;;;;;5016356;28;20534;-78
2023/05/12 00:04:32;;;;;;;8.80;8.10;;;;;;;;;;5015656;28;20449;-77
2023/05/12 00:07:01;;;;;;;7.97;7.37;;;;;;;;;;5017166;28;20453;-77
2023/05/12 00:09:29;;;;;;;8.20;7.60;;;;;;;;;;5020688;28;20498;-76
2023/05/12 00:12:02;;;;;;;8.27;7.60;;;;;;;;;;5030221;28;20540;-75
2023/05/12 00:14:36;;;;;;;8.73;7.90;;;;;;;;;;5033876;28;20486;-77
2023/05/12 00:17:06;;;;;;;8.60;7.70;;;;;;;;;;5033766;28;20828;-76
2023/05/12 00:19:38;;;;;;;8.00;7.40;;;;;;;;;;5033723;28;20467;-76
2023/05/12 00:22:10;;;;;;;9.17;8.33;;;;;;;;;;5035063;28;20478;-76
2023/05/12 00:24:42;;;;;;;8.60;8.00;;;;;;;;;;5027387;28;20443;-77
2023/05/12 00:27:12;;;;;;;8.50;7.90;;;;;;;;;;5020809;28;20459;-76
2023/05/12 00:29:45;;;;;;;8.37;7.77;;;;;;;;;;5020281;28;20522;-76
2023/05/12 00:32:13;;;;;;;9.20;8.50;;;;;;;;;;5021943;28;20517;-77
2023/05/12 00:34:42;;;;;;;9.37;8.60;;;;;;;;;;5023419;28;20510;-77
2023/05/12 00:37:11;;;;;;;9.90;9.10;;;;;;;;;;5029288;28;20443;-77
2023/05/12 00:39:43;;;;;;;10.43;9.63;;;;;;;;;;5031762;28;20506;-77
2023/05/12 00:42:17;;;;;;;10.83;9.93;;;;;;;;;;5032122;28;20465;-78
2023/05/12 00:44:47;;;;;;;9.80;9.00;;;;;;;;;;5032053;28;20448;-76
2023/05/12 00:47:21;;;;;;;10.50;9.60;;;;;;;;;;5031460;28;20453;-78
2023/05/12 00:49:55;;;;;;;12.20;11.10;;;;;;;;;;5033593;28;20467;-77
2023/05/12 00:52:26;;;;;;;13.17;11.23;;;;;;;;;;5027381;28;20455;-76
2023/05/12 00:54:54;;;;;;;12.20;11.20;;;;;;;;;;5024226;28;20479;-76
2023/05/12 00:57:24;;;;;;;11.77;10.80;;;;;;;;;;5021504;28;20482;-76
2023/05/12 00:59:55;;;;;;;13.17;12.07;;;;;;;;;;5020320;28;20475;-77
2023/05/12 01:02:23;;;;;;;11.47;10.47;;;;;;;;;;5023117;28;20459;-77
2023/05/12 01:04:52;;;;;;;12.97;11.83;;;;;;;;;;5025025;28;20456;-76
2023/05/12 01:07:20;;;;;;;11.93;10.93;;;;;;;;;;5022939;28;20834;-76
2023/05/12 01:09:48;;;;;;;12.00;10.60;;;;;;;;;;5025618;28;20482;-76
2023/05/12 01:12:16;;;;;;;12.63;11.60;;;;;;;;;;5025756;28;20458;-76
2023/05/12 01:14:48;;;;;;;12.07;11.07;;;;;;;;;;5024753;28;20486;-76
2023/05/12 01:17:23;;;;;;;12.33;11.27;;;;;;;;;;5025112;28;20456;-77
2023/05/12 01:19:55;;;;;;;13.40;12.30;;;;;;;;;;5023359;28;20485;-76
2023/05/12 01:22:25;;;;;;;12.73;11.73;;;;;;;;;;5023365;28;20448;-77
2023/05/12 01:25:12;;;;;;;12.63;11.63;;;;;;;;;;5023431;28;20439;-77
2023/05/12 01:27:48;;;;;;;14.10;12.80;;;;;;;;;;5024969;28;20435;-77
2023/05/12 01:30:18;;;;;;;12.93;11.83;;;;;;;;;;5021908;28;20735;-76
2023/05/12 01:32:47;;;;;;;13.00;11.97;;;;;;;;;;5018993;28;20447;-76
2023/05/12 01:35:23;;;;;;;12.40;11.40;;;;;;;;;;5017893;28;20533;-77
2023/05/12 01:38:01;;;;;;;12.90;11.80;;;;;;;;;;5017946;28;20841;-75
2023/05/12 01:40:33;;;;;;;14.03;12.73;;;;;;;;;;5017280;28;20478;-76
2023/05/12 01:43:25;;;;;;;14.37;13.07;;;;;;;;;;5019045;28;20797;-77
2023/05/12 01:46:01;;;;;;;13.53;12.33;;;;;;;;;;5019934;28;20448;-76
2023/05/12 01:48:36;;;;;;;13.20;12.10;;;;;;;;;;5020369;28;20646;-76
2023/05/12 01:51:12;;;;;;;12.60;11.50;;;;;;;;;;5021015;28;20455;-75
2023/05/12 01:53:43;;;;;;;13.23;12.13;;;;;;;;;;5019353;28;20436;-78
2023/05/12 01:56:13;;;;;;;12.77;11.50;;;;;;;;;;5019035;28;20483;-77
2023/05/12 01:58:44;;;;;;;13.90;12.70;;;;;;;;;;5017717;28;20498;-75
2023/05/12 02:01:12;;;;;;;13.37;12.13;;;;;;;;;;5017695;28;20459;-76
2023/05/12 02:03:40;;;;;;;12.97;11.77;;;;;;;;;;5021452;28;20550;-76
2023/05/12 02:06:13;;;;;;;13.50;12.40;;;;;;;;;;5021575;28;20466;-77
2023/05/12 02:08:43;;;;;;;14.40;13.10;;;;;;;;;;5021432;28;20475;-75
2023/05/12 02:11:16;;;;;;;14.40;13.20;;;;;;;;;;5022184;28;20451;-76
2023/05/12 02:13:58;;;;;;;14.37;13.10;;;;;;;;;;5021434;28;20460;-76
2023/05/12 02:16:29;;;;;;;14.60;13.40;;;;;;;;;;5021693;28;20477;-76
2023/05/12 02:19:01;;;;;;;15.30;13.90;;;;;;;;;;5021260;28;20470;-77
2023/05/12 02:21:32;;;;;;;16.40;14.80;;;;;;;;;;5022867;28;20486;-75
2023/05/12 02:24:06;;;;;;;17.57;15.63;;;;;;;;;;5022703;28;20444;-77
2023/05/12 02:26:37;;;;;;;16.30;14.70;;;;;;;;;;5021970;28;20531;-75
2023/05/12 02:29:11;;;;;;;15.97;14.53;;;;;;;;;;5020135;28;20518;-76
2023/05/12 02:31:47;;;;;;;18.97;17.30;;;;;;;;;;5018713;28;20928;-75
2023/05/12 02:34:23;;;;;;;18.53;16.73;;;;;;;;;;5018039;28;20530;-77
2023/05/12 02:36:54;;;;;;;18.10;16.40;;;;;;;;;;5019811;28;20475;-77
2023/05/12 02:39:29;;;;;;;18.73;17.03;;;;;;;;;;5019155;28;20566;-77
2023/05/12 02:42:06;;;;;;;16.83;15.27;;;;;;;;;;5018483;28;20447;-76
2023/05/12 02:44:36;;;;;;;18.20;16.40;;;;;;;;;;5017521;28;20455;-75
2023/05/12 02:47:14;;;;;;;18.90;16.30;;;;;;;;;;5018307;28;20578;-75
2023/05/12 02:49:48;;;;;;;19.03;16.97;;;;;;;;;;5016662;28;20857;-76
2023/05/12 02:52:19;;;;;;;17.30;15.70;;;;;;;;;;5017027;28;20925;-76
2023/05/12 02:55:07;;;;;;;17.27;15.47;;;;;;;;;;5016891;28;20486;-76
2023/05/12 02:57:41;;;;;;;15.90;14.40;;;;;;;;;;5017150;28;20486;-75
2023/05/12 03:00:13;;;;;;;18.47;16.67;;;;;;;;;;5017109;28;20562;-77
2023/05/12 03:03:08;;;;;;;17.70;16.00;;;;;;;;;;5016996;28;20470;-76
2023/05/12 03:05:40;;;;;;;18.03;16.23;;;;;;;;;;5015163;28;20451;-76
2023/05/12 03:08:09;;;;;;;17.67;16.03;;;;;;;;;;5017781;28;20490;-75
2023/05/12 03:10:46;;;;;;;19.17;17.27;;;;;;;;;;5017223;28;20455;-76
2023/05/12 03:13:19;;;;;;;18.70;16.60;;;;;;;;;;5016561;28;20455;-76
2023/05/12 03:15:52;;;;;;;18.60;16.70;;;;;;;;;;5017139;28;20483;-76
2023/05/12 03:18:24;;;;;;;18.10;16.30;;;;;;;;;;5015911;28;20507;-76
2023/05/12 03:20:58;;;;;;;19.03;17.07;;;;;;;;;;5016664;28;20471;-76
2023/05/12 03:23:28;;;;;;;17.63;15.93;;;;;;;;;;5013640;28;20487;-76
2023/05/12 03:26:03;;;;;;;17.20;15.50;;;;;;;;;;5012837;28;20542;-78
2023/05/12 03:28:32;;;;;;;17.60;15.80;;;;;;;;;;5012979;28;20474;-76
2023/05/12 03:31:01;;;;;;;18.90;16.50;;;;;;;;;;5012935;28;20456;-76
2023/05/12 03:33:38;;;;;;;17.30;15.60;;;;;;;;;;5012159;28;20444;-76
2023/05/12 03:36:08;;;;;;;15.60;14.20;;;;;;;;;;5012248;28;20528;-76
2023/05/12 03:38:42;;;;;;;15.93;14.43;;;;;;;;;;5011983;28;20562;-76
2023/05/12 03:41:14;;;;;;;17.87;16.10;;;;;;;;;;5012664;28;20490;-76
2023/05/12 03:43:43;;;;;;;17.23;15.63;;;;;;;;;;5012349;28;20474;-76
2023/05/12 03:46:13;;;;;;;16.17;14.57;;;;;;;;;;5014033;28;20490;-76
2023/05/12 03:48:45;;;;;;;15.30;13.80;;;;;;;;;;5018166;28;20494;-76
2023/05/12 03:51:17;;;;;;;17.23;15.47;;;;;;;;;;5018216;28;20459;-76
2023/05/12 03:53:47;;;;;;;16.40;14.77;;;;;;;;;;5018041;28;20458;-75
2023/05/12 03:56:18;;;;;;;17.57;15.87;;;;;;;;;;5017253;28;20486;-75
2023/05/12 03:58:52;;;;;;;16.13;14.73;;;;;;;;;;5018008;28;20470;-76
2023/05/12 04:01:22;;;;;;;16.30;14.90;;;;;;;;;;5017647;28;20459;-76
2023/05/12 04:03:58;;;;;;;16.83;15.03;;;;;;;;;;5017977;28;20443;-76
2023/05/12 04:06:30;;;;;;;16.40;14.73;;;;;;;;;;5018405;28;20451;-76
2023/05/12 04:09:06;;;;;;;18.00;16.20;;;;;;;;;;5017522;28;20950;-77
2023/05/12 04:11:38;;;;;;;17.37;15.67;;;;;;;;;;5017824;28;20545;-76
2023/05/12 04:14:10;;;;;;;17.43;15.63;;;;;;;;;;5017543;28;20748;-78
2023/05/12 04:16:48;;;;;;;17.57;15.77;;;;;;;;;;5017235;28;20491;-76
2023/05/12 04:19:17;;;;;;;18.13;16.30;;;;;;;;;;5017906;28;20479;-76
2023/05/12 04:21:46;;;;;;;16.97;15.37;;;;;;;;;;5016997;28;20452;-76
2023/05/12 04:24:18;;;;;;;16.20;14.60;;;;;;;;;;5018082;28;20452;-76
2023/05/12 04:26:49;;;;;;;16.47;15.07;;;;;;;;;;5017915;28;20538;-77
2023/05/12 04:29:27;;;;;;;15.70;14.30;;;;;;;;;;5017187;28;20479;-78
2023/05/12 04:32:02;;;;;;;15.77;14.30;;;;;;;;;;5016611;28;20454;-77
2023/05/12 04:34:38;;;;;;;17.17;15.47;;;;;;;;;;5016893;28;20458;-77
2023/05/12 04:37:26;;;;;;;15.67;13.97;;;;;;;;;;5016678;28;20577;-76
2023/05/12 04:39:58;;;;;;;17.40;15.80;;;;;;;;;;5016846;28;20482;-76
2023/05/12 04:42:30;;;;;;;16.57;15.07;;;;;;;;;;5015844;28;20461;-76
2023/05/12 04:44:59;;;;;;;15.97;14.53;;;;;;;;;;5015204;28;20483;-77
2023/05/12 04:47:31;;;;;;;15.03;13.57;;;;;;;;;;5015045;28;20451;-76
2023/05/12 04:50:01;;;;;;;15.80;14.20;;;;;;;;;;5015315;28;20479;-77
2023/05/12 04:52:32;;;;;;;17.03;15.43;;;;;;;;;;5015076;28;20455;-77
2023/05/12 04:55:00;;;;;;;15.97;14.33;;;;;;;;;;5016628;28;20525;-79
2023/05/12 04:57:30;;;;;;;15.37;13.97;;;;;;;;;;5016199;28;20451;-77
2023/05/12 04:59:59;;;;;;;15.77;14.27;;;;;;;;;;5015847;28;20471;-77
2023/05/12 05:02:29;;;;;;;17.57;15.97;;;;;;;;;;5017291;28;20486;-76
2023/05/12 05:04:56;;;;;;;16.83;15.23;;;;;;;;;;5017012;28;20454;-76
2023/05/12 05:07:24;;;;;;;17.03;15.33;;;;;;;;;;5016713;28;20518;-76
2023/05/12 05:09:52;;;;;;;17.43;15.73;;;;;;;;;;5016232;28;21004;-76
2023/05/12 05:12:21;;;;;;;16.10;14.57;;;;;;;;;;5016290;28;20458;-78
2023/05/12 05:14:48;;;;;;;16.97;15.17;;;;;;;;;;5016344;28;20447;-75
2023/05/12 05:17:16;;;;;;;17.20;15.50;;;;;;;;;;5016318;28;20497;-77
2023/05/12 05:19:46;;;;;;;18.20;16.40;;;;;;;;;;5016366;28;20475;-78
2023/05/12 05:22:18;;;;;;;19.53;16.53;;;;;;;;;;5018641;28;20455;-77
2023/05/12 05:24:46;;;;;;;19.10;17.20;;;;;;;;;;5016758;28;20467;-77
2023/05/12 05:27:14;;;;;;;19.03;17.00;;;;;;;;;;5017851;28;20451;-78
2023/05/12 05:29:45;;;;;;;18.60;15.53;;;;;;;;;;5017433;28;20494;-75
2023/05/12 05:32:12;;;;;;;17.27;15.40;;;;;;;;;;5016905;28;20451;-77
2023/05/12 05:34:41;;;;;;;18.53;16.63;;;;;;;;;;5015238;28;20451;-77
2023/05/12 05:37:12;;;;;;;19.10;17.07;;;;;;;;;;5015545;28;20483;-74
2023/05/12 05:39:42;;;;;;;16.30;14.60;;;;;;;;;;5016577;28;20479;-77
2023/05/12 05:42:11;;;;;;;17.40;14.23;;;;;;;;;;5015222;28;20452;-78
2023/05/12 05:44:39;;;;;;;16.90;15.20;;;;;;;;;;5014594;28;20448;-77
2023/05/12 05:47:11;;;;;;;16.93;15.23;;;;;;;;;;5014331;28;20438;-77
2023/05/12 05:49:39;;;;;;;15.50;14.00;;;;;;;;;;5014233;28;20479;-77
2023/05/12 05:52:12;;;;;;;17.40;15.50;;;;;;;;;;5015888;28;20467;-77
2023/05/12 05:54:42;;;;;;;16.03;14.53;;;;;;;;;;5020327;28;20953;-77
2023/05/12 05:57:10;;;;;;;17.27;15.47;;;;;;;;;;5017680;28;20483;-77
2023/05/12 05:59:38;;;;;;;16.00;14.50;;;;;;;;;;5016156;28;20561;-77
2023/05/12 06:02:10;;;;;;;16.37;14.77;;;;;;;;;;5015737;28;20467;-78
2023/05/12 06:04:39;;;;;;;16.50;15.00;;;;;;;;;;5015996;28;20487;-78
2023/05/12 06:07:10;;;;;;;16.07;14.50;;;;;;;;;;5017203;28;20439;-76
2023/05/12 06:09:41;;;;;;;15.80;14.13;;;;;;;;;;5016448;28;20570;-77
2023/05/12 06:12:10;;;;;;;15.27;13.87;;;;;;;;;;5015541;28;20550;-77
2023/05/12 06:14:39;;;;;;;15.30;13.80;;;;;;;;;;5016716;28;20525;-76
2023/05/12 06:17:07;;;;;;;17.27;15.47;;;;;;;;;;5020683;28;20575;-77
2023/05/12 06:19:36;;;;;;;15.97;14.40;;;;;;;;;;5021140;28;20471;-78
2023/05/12 06:22:06;;;;;;;15.87;14.27;;;;;;;;;;5020928;28;20479;-77
2023/05/12 06:24:37;;;;;;;14.93;13.53;;;;;;;;;;5021630;28;20451;-78
2023/05/12 06:27:26;;;;;;;15.57;14.07;;;;;;;;;;5020888;28;20470;-76
2023/05/12 06:30:09;;;;;;;15.10;13.50;;;;;;;;;;5021978;28;20460;-77
2023/05/12 06:32:37;;;;;;;14.50;13.20;;;;;;;;;;5022421;28;20447;-77
2023/05/12 06:35:08;;;;;;;14.87;13.37;;;;;;;;;;5022831;28;20486;-76
2023/05/12 06:37:37;;;;;;;13.17;11.97;;;;;;;;;;5022519;28;20510;-78
2023/05/12 06:40:15;;;;;;;13.00;11.80;;;;;;;;;;5021964;28;20477;-78
2023/05/12 06:42:46;;;;;;;11.07;10.07;;;;;;;;;;5022562;28;20954;-78
2023/05/12 06:45:13;;;;;;;13.70;12.40;;;;;;;;;;5022644;28;20462;-77
2023/05/12 06:47:41;;;;;;;12.93;11.80;;;;;;;;;;5024807;28;20444;-76
2023/05/12 06:50:09;;;;;;;13.50;12.30;;;;;;;;;;5024217;28;20479;-76
2023/05/12 06:52:38;;;;;;;13.67;12.20;;;;;;;;;;5022994;28;20436;-77
2023/05/12 06:55:08;;;;;;;12.07;10.90;;;;;;;;;;5023226;28;20467;-77
2023/05/12 06:57:35;;;;;;;11.93;10.83;;;;;;;;;;5022552;28;20479;-78
2023/05/12 07:00:06;;;;;;;11.97;10.87;;;;;;;;;;5022962;28;20483;-77
2023/05/12 07:02:36;;;;;;;13.00;11.80;;;;;;;;;;5022909;28;20428;-75
2023/05/12 07:05:09;;;;;;;12.17;11.17;;;;;;;;;;5023490;28;20455;-76
2023/05/12 07:07:37;;;;;;;12.00;10.90;;;;;;;;;;5025957;28;20523;-79
2023/05/12 07:10:05;;;;;;;10.60;9.73;;;;;;;;;;5024196;28;20477;-77
2023/05/12 07:12:38;;;;;;;12.70;11.60;;;;;;;;;;5022904;28;20474;-76
2023/05/12 07:15:10;;;;;;;11.43;10.17;;;;;;;;;;5020835;28;20463;-77
2023/05/12 07:17:38;;;;;;;11.70;10.70;;;;;;;;;;5017981;28;21000;-78
2023/05/12 07:20:07;;;;;;;10.30;9.50;;;;;;;;;;5016850;28;20476;-77
2023/05/12 07:22:35;;;;;;;10.90;9.90;;;;;;;;;;5027155;28;20455;-75
2023/05/12 07:25:08;;;;;;;10.77;9.87;;;;;;;;;;5021377;28;21171;-75
2023/05/12 07:27:36;;;;;;;10.10;9.20;;;;;;;;;;5020243;28;20506;-77
2023/05/12 07:30:04;;;;;;;9.87;9.03;;;;;;;;;;5020138;28;20452;-75
2023/05/12 07:32:33;;;;;;;9.67;8.90;;;;;;;;;;5020686;28;20455;-74
2023/05/12 07:35:04;;;;;;;10.57;9.67;;;;;;;;;;5021572;28;20446;-74
2023/05/12 07:37:34;;;;;;;9.93;8.70;;;;;;;;;;5021226;28;21019;-76
2023/05/12 07:40:03;;;;;;;10.00;9.27;;;;;;;;;;5020624;28;20543;-77
2023/05/12 07:42:31;;;;;;;10.17;9.20;;;;;;;;;;5019113;28;21017;-74
2023/05/12 07:44:59;;;;;;;8.70;8.00;;;;;;;;;;5018542;28;20542;-76
2023/05/12 07:47:27;;;;;;;7.97;7.33;;;;;;;;;;5015095;28;20462;-76
2023/05/12 07:49:59;;;;;;;9.10;8.33;;;;;;;;;;5015312;28;20945;-76
2023/05/12 07:52:26;;;;;;;8.53;7.83;;;;;;;;;;5016356;28;20462;-76
2023/05/12 07:54:56;;;;;;;8.13;7.33;;;;;;;;;;5016147;28;20494;-75
2023/05/12 07:57:24;;;;;;;9.00;8.30;;;;;;;;;;5015457;28;20854;-75
2023/05/12 07:59:53;;;;;;;7.87;7.27;;;;;;;;;;5015151;28;20471;-76
2023/05/12 08:02:21;;;;;;;7.80;7.20;;;;;;;;;;5015296;28;20439;-77
2023/05/12 08:04:49;;;;;;;8.90;8.10;;;;;;;;;;5019992;28;20451;-77
2023/05/12 08:07:18;;;;;;;8.60;7.90;;;;;;;;;;5025650;28;20436;-76
2023/05/12 08:09:45;;;;;;;7.50;6.90;;;;;;;;;;5020791;28;21011;-75
2023/05/12 08:12:13;;;;;;;8.43;7.73;;;;;;;;;;5012603;28;20479;-78
2023/05/12 08:14:41;;;;;;;7.10;6.60;;;;;;;;;;5012656;28;20537;-78
2023/05/12 08:17:09;;;;;;;6.50;6.00;;;;;;;;;;5013699;28;20491;-76
2023/05/12 08:19:37;;;;;;;6.77;6.27;;;;;;;;;;5012685;28;20471;-75
2023/05/12 08:22:05;;;;;;;6.77;6.27;;;;;;;;;;5013337;28;20455;-76
2023/05/12 08:24:34;;;;;;;7.23;6.50;;;;;;;;;;5012689;28;21195;-78
2023/05/12 08:27:02;;;;;;;7.80;7.20;;;;;;;;;;5012803;28;20459;-77
2023/05/12 08:29:29;;;;;;;7.30;6.70;;;;;;;;;;5013961;28;20857;-75
2023/05/12 08:31:58;;;;;;;6.60;6.10;;;;;;;;;;5014335;28;20456;-76
2023/05/12 08:34:29;;;;;;;6.30;5.90;;;;;;;;;;5016263;28;20455;-75
2023/05/12 08:36:56;;;;;;;5.50;5.00;;;;;;;;;;5016783;28;20553;-75
2023/05/12 08:39:25;;;;;;;5.80;5.40;;;;;;;;;;5017006;28;20467;-76
2023/05/12 08:41:55;;;;;;;5.10;4.80;;;;;;;;;;5020787;28;20882;-76
2023/05/12 08:44:24;;;;;;;6.50;6.10;;;;;;;;;;5020168;28;20439;-76
2023/05/12 08:46:52;;;;;;;6.20;5.70;;;;;;;;;;5016601;28;20475;-75
2023/05/12 08:49:21;;;;;;;6.03;5.67;;;;;;;;;;5016540;28;20466;-76
2023/05/12 08:51:50;;;;;;;5.47;5.13;;;;;;;;;;5016760;28;20455;-77
2023/05/12 08:54:19;;;;;;;5.23;4.93;;;;;;;;;;5020443;28;20463;-75
2023/05/12 08:56:50;;;;;;;5.20;4.77;;;;;;;;;;5021230;28;20852;-75
2023/05/12 08:59:20;;;;;;;5.43;5.13;;;;;;;;;;5017976;28;20493;-75
2023/05/12 09:01:48;;;;;;;5.53;5.20;;;;;;;;;;5016166;28;20509;-76
2023/05/12 09:04:16;;;;;;;4.97;4.57;;;;;;;;;;5015165;28;20438;-75
2023/05/12 09:06:44;;;;;;;5.30;4.90;;;;;;;;;;5014991;28;20439;-74
2023/05/12 09:09:14;;;;;;;6.23;5.80;;;;;;;;;;5015029;28;20479;-75
2023/05/12 09:11:43;;;;;;;6.23;5.63;;;;;;;;;;5015081;28;20546;-76
2023/05/12 09:14:16;;;;;;;6.30;5.90;;;;;;;;;;5015068;28;20455;-76
2023/05/12 09:16:47;;;;;;;6.50;6.00;;;;;;;;;;5016109;28;20475;-76
2023/05/12 09:19:19;;;;;;;6.20;5.80;;;;;;;;;;5017583;28;20470;-76
2023/05/12 09:21:47;;;;;;;6.43;5.93;;;;;;;;;;5016921;28;20562;-75
2023/05/12 09:24:15;;;;;;;5.90;5.50;;;;;;;;;;5016718;28;20461;-77
2023/05/12 09:26:47;;;;;;;5.00;4.70;;;;;;;;;;5016765;28;20659;-77
2023/05/12 09:29:15;;;;;;;6.57;5.97;;;;;;;;;;5017450;28;20483;-77
2023/05/12 09:31:51;;;;;;;6.20;5.80;;;;;;;;;;5017079;28;20447;-76
2023/05/12 09:34:19;;;;;;;5.97;5.57;;;;;;;;;;5016669;28;20956;-76
2023/05/12 09:36:55;;;;;;;6.07;5.73;;;;;;;;;;5020965;28;20487;-78
2023/05/12 09:39:23;;;;;;;6.77;6.20;;;;;;;;;;5021623;28;20463;-76
2023/05/12 09:41:51;;;;;;;5.60;5.20;;;;;;;;;;5021946;28;20478;-77
2023/05/12 09:44:19;;;;;;;6.83;6.33;;;;;;;;;;5020636;28;20455;-75
2023/05/12 09:46:47;;;;;;;5.60;5.30;;;;;;;;;;5021050;28;20490;-75
2023/05/12 09:49:18;;;;;;;6.20;5.80;;;;;;;;;;5021132;28;20482;-76
2023/05/12 09:51:46;;;;;;;6.83;6.33;;;;;;;;;;5022281;28;20455;-75
2023/05/12 09:54:13;;;;;;;5.20;4.90;;;;;;;;;;5021635;28;20486;-74
2023/05/12 09:56:41;;;;;;;6.07;5.60;;;;;;;;;;5022308;28;20436;-76
2023/05/12 09:59:11;;;;;;;5.00;4.70;;;;;;;;;;5015773;28;20475;-75
2023/05/12 10:01:39;;;;;;;4.87;4.57;;;;;;;;;;5017700;28;20447;-75
2023/05/12 10:04:08;;;;;;;4.27;4.07;;;;;;;;;;5017967;28;20463;-75
2023/05/12 10:06:42;;;;;;;4.53;4.33;;;;;;;;;;5017595;28;20451;-76
2023/05/12 10:09:13;;;;;;;5.00;4.37;;;;;;;;;;5017379;28;20472;-77
2023/05/12 10:11:40;;;;;;;4.57;4.37;;;;;;;;;;5019023;28;20455;-77
2023/05/12 10:14:08;;;;;;;3.70;3.50;;;;;;;;;;5018946;28;20455;-77
2023/05/12 10:16:36;;;;;;;4.10;3.90;;;;;;;;;;5018864;28;20448;-76
2023/05/12 10:19:06;;;;;;;3.63;3.43;;;;;;;;;;5018420;28;20463;-76
2023/05/12 10:21:34;;;;;;;4.33;4.03;;;;;;;;;;5018394;28;20448;-75
2023/05/12 10:24:03;;;;;;;4.10;3.80;;;;;;;;;;5018026;28;20491;-75
2023/05/12 10:26:33;;;;;;;3.83;3.50;;;;;;;;;;5017718;28;20459;-75
2023/05/12 10:29:01;;;;;;;4.23;3.63;;;;;;;;;;5018390;28;20566;-76
2023/05/12 10:31:29;;;;;;;3.87;3.67;;;;;;;;;;5018078;28;20799;-76
2023/05/12 10:33:57;;;;;;;4.07;3.80;;;;;;;;;;5017111;28;20886;-76
2023/05/12 10:36:25;;;;;;;4.43;4.10;;;;;;;;;;5020478;28;20823;-77
2023/05/12 10:38:53;;;;;;;4.17;3.87;;;;;;;;;;5022401;28;20981;-76
2023/05/12 10:41:31;;;;;;;5.07;4.67;;;;;;;;;;5023468;28;20444;-75
2023/05/12 10:43:59;;;;;;;4.77;4.47;;;;;;;;;;5022272;28;20865;-75
2023/05/12 10:46:26;;;;;;;4.70;4.40;;;;;;;;;;5022553;28;20454;-75
2023/05/12 10:48:55;;;;;;;4.83;4.50;;;;;;;;;;5021256;28;20819;-78
2023/05/12 10:51:23;;;;;;;5.50;5.00;;;;;;;;;;5022012;28;20451;-77
2023/05/12 10:53:54;;;;;;;4.60;4.30;;;;;;;;;;5022291;28;20454;-77
2023/05/12 10:56:25;;;;;;;4.60;4.20;;;;;;;;;;5022247;28;20522;-77
2023/05/12 10:59:22;;;;;;;4.10;3.70;;;;;;;;;;5022104;28;20509;-76
2023/05/12 11:02:02;;;;;;;3.70;3.50;;;;;;;;;;4981396;28;20441;-76
2023/05/12 11:04:40;;;;;;;3.53;3.33;;;;;;;;;;5016083;28;20459;-76
2023/05/12 11:07:08;;;;;;;3.80;3.50;;;;;;;;;;5024399;28;20451;-76
2023/05/12 11:09:37;;;;;;;4.17;3.87;;;;;;;;;;5024490;28;20854;-76
2023/05/12 11:12:06;;;;;;;4.83;3.93;;;;;;;;;;5024566;28;20450;-76
2023/05/12 11:14:34;;;;;;;4.43;4.13;;;;;;;;;;5021985;28;20428;-77
2023/05/12 11:17:03;;;;;;;5.03;3.83;;;;;;;;;;5020106;28;20530;-77
2023/05/12 11:19:31;;;;;;;3.77;3.47;;;;;;;;;;5020853;28;20459;-74
2023/05/12 11:21:58;;;;;;;3.40;3.10;;;;;;;;;;5022506;28;20819;-76
2023/05/12 11:24:26;;;;;;;3.00;2.80;;;;;;;;;;5023234;28;20995;-76
2023/05/12 11:26:55;;;;;;;3.10;2.90;;;;;;;;;;5018858;28;20515;-76
2023/05/12 11:29:23;;;;;;;4.17;3.10;;;;;;;;;;5022834;28;20518;-75
2023/05/12 11:31:51;;;;;;;3.20;3.00;;;;;;;;;;5022638;28;20463;-76
2023/05/12 11:34:23;;;;;;;3.93;3.70;;;;;;;;;;5018637;28;20435;-76
2023/05/12 11:36:52;;;;;;;3.73;3.50;;;;;;;;;;5021959;28;20981;-76
2023/05/12 11:39:20;;;;;;;4.50;4.30;;;;;;;;;;5016411;28;20490;-77
2023/05/12 11:41:49;;;;;;;3.40;3.20;;;;;;;;;;5015963;28;20550;-77
2023/05/12 11:44:17;;;;;;;4.20;3.80;;;;;;;;;;5015094;28;20586;-77
2023/05/12 11:46:55;;;;;;;3.40;3.20;;;;;;;;;;5013003;28;21099;-75
2023/05/12 11:49:24;;;;;;;3.70;3.27;;;;;;;;;;5013105;28;20985;-75
2023/05/12 11:51:52;;;;;;;3.87;3.67;;;;;;;;;;5013101;28;20955;-75
2023/05/12 11:54:20;;;;;;;3.87;3.57;;;;;;;;;;5013171;28;20807;-77
2023/05/12 11:56:49;;;;;;;3.60;3.40;;;;;;;;;;5013285;28;20542;-76
2023/05/12 11:59:27;;;;;;;3.70;3.50;;;;;;;;;;5014357;28;20973;-77
2023/05/12 12:01:54;;;;;;;3.50;3.27;;;;;;;;;;5015355;28;20984;-76
2023/05/12 12:04:33;;;;;;;4.40;4.10;;;;;;;;;;5019456;28;20945;-76
2023/05/12 12:07:01;;;;;;;3.97;3.67;;;;;;;;;;5018971;28;20537;-76
2023/05/12 12:09:39;;;;;;;3.57;3.37;;;;;;;;;;5022648;28;20540;-76
2023/05/12 12:12:08;;;;;;;5.00;4.50;;;;;;;;;;5022768;28;20963;-75
2023/05/12 12:14:40;;;;;;;4.70;4.30;;;;;;;;;;5021503;28;20455;-76
2023/05/12 12:17:09;;;;;;;4.23;4.03;;;;;;;;;;5023868;28;20451;-75
2023/05/12 12:19:38;;;;;;;4.37;4.03;;;;;;;;;;5025649;28;20479;-76
2023/05/12 12:22:06;;;;;;;4.50;4.20;;;;;;;;;;5022800;28;20479;-76
2023/05/12 12:24:34;;;;;;;4.57;4.27;;;;;;;;;;5020759;28;20455;-76
2023/05/12 12:27:05;;;;;;;6.13;4.47;;;;;;;;;;5023329;28;20461;-76
2023/05/12 12:29:33;;;;;;;5.00;4.60;;;;;;;;;;5023874;28;20494;-76
2023/05/12 12:32:00;;;;;;;4.20;3.97;;;;;;;;;;5022815;28;20486;-75
2023/05/12 12:34:29;;;;;;;4.07;3.87;;;;;;;;;;5021998;28;20478;-75
2023/05/12 12:36:58;;;;;;;4.07;3.60;;;;;;;;;;5024368;28;20512;-75
2023/05/12 12:39:25;;;;;;;3.33;3.13;;;;;;;;;;5023495;28;21000;-75
2023/05/12 12:41:54;;;;;;;3.33;3.03;;;;;;;;;;5023167;28;20459;-76
2023/05/12 12:44:21;;;;;;;3.63;3.43;;;;;;;;;;5023780;28;20458;-76
2023/05/12 12:46:49;;;;;;;4.07;3.77;;;;;;;;;;5026950;28;20462;-76
2023/05/12 12:49:17;;;;;;;4.00;3.70;;;;;;;;;;5027587;28;21102;-75
2023/05/12 12:51:45;;;;;;;2.13;2.03;;;;;;;;;;5028920;28;20522;-76
2023/05/12 12:54:16;;;;;;;1.70;1.70;;;;;;;;;;5027644;28;20451;-77
2023/05/12 12:56:44;;;;;;;1.60;1.50;;;;;;;;;;5024408;28;20797;-77
2023/05/12 12:59:12;;;;;;;1.70;1.60;;;;;;;;;;5019343;28;20541;-74
2023/05/12 13:01:40;;;;;;;1.80;1.70;;;;;;;;;;5018162;28;20462;-77
2023/05/12 13:04:07;;;;;;;2.87;2.10;;;;;;;;;;5019075;28;20463;-76
2023/05/12 13:06:35;;;;;;;2.30;2.20;;;;;;;;;;5017802;28;20451;-76
2023/05/12 13:09:03;;;;;;;2.27;2.17;;;;;;;;;;5017342;28;20467;-76
2023/05/12 13:11:32;;;;;;;4.47;4.20;;;;;;;;;;5016533;28;20455;-76
2023/05/12 13:14:01;;;;;;;5.40;4.80;;;;;;;;;;5016698;28;20479;-75
2023/05/12 13:16:28;;;;;;;6.17;5.77;;;;;;;;;;5016659;28;20542;-75
2023/05/12 13:18:57;;;;;;;6.13;5.73;;;;;;;;;;5016147;28;20867;-76
2023/05/12 13:21:24;;;;;;;6.23;5.83;;;;;;;;;;5017095;28;20439;-74
2023/05/12 13:23:52;;;;;;;5.53;5.23;;;;;;;;;;5016230;28;20486;-76
2023/05/12 13:26:20;;;;;;;5.53;5.23;;;;;;;;;;5015292;28;20482;-76
2023/05/12 13:28:49;;;;;;;6.47;5.93;;;;;;;;;;5015338;28;20487;-75
2023/05/12 13:31:16;;;;;;;6.80;6.40;;;;;;;;;;5015726;28;20447;-76
2023/05/12 13:33:44;;;;;;;6.83;6.33;;;;;;;;;;5015497;28;20478;-76
2023/05/12 13:36:12;;;;;;;6.53;5.97;;;;;;;;;;5015819;28;20464;-76
2023/05/12 13:38:39;;;;;;;4.90;4.60;;;;;;;;;;5015059;28;20493;-75
2023/05/12 13:41:07;;;;;;;4.47;4.07;;;;;;;;;;5014848;28;20447;-75
2023/05/12 13:43:35;;;;;;;4.17;3.70;;;;;;;;;;5015396;28;20513;-76
2023/05/12 13:46:04;;;;;;;4.10;3.80;;;;;;;;;;5015210;28;20559;-75
2023/05/12 13:48:32;;;;;;;4.27;3.93;;;;;;;;;;5015396;28;20533;-76
2023/05/12 13:50:59;;;;;;;5.87;5.47;;;;;;;;;;5015295;28;20451;-75
2023/05/12 13:53:27;;;;;;;6.97;6.47;;;;;;;;;;5015808;28;20451;-75
2023/05/12 13:55:55;;;;;;;8.07;7.30;;;;;;;;;;5016045;28;20527;-76
2023/05/12 13:58:25;;;;;;;7.50;7.00;;;;;;;;;;5015608;28;20489;-75
2023/05/12 14:00:53;;;;;;;8.70;7.97;;;;;;;;;;5015824;28;20458;-77
2023/05/12 14:03:22;;;;;;;8.73;7.73;;;;;;;;;;5015677;28;20451;-76
2023/05/12 14:05:50;;;;;;;8.87;8.27;;;;;;;;;;5014920;28;20786;-76
2023/05/12 14:08:18;;;;;;;7.90;7.40;;;;;;;;;;5014996;28;20506;-76
2023/05/12 14:10:46;;;;;;;8.87;8.20;;;;;;;;;;5015085;28;20848;-75
2023/05/12 14:13:15;;;;;;;8.80;8.13;;;;;;;;;;5016231;28;20432;-75
2023/05/12 14:15:43;;;;;;;8.27;7.47;;;;;;;;;;5019836;28;20546;-77
2023/05/12 14:18:11;;;;;;;7.43;6.83;;;;;;;;;;5018185;28;20455;-76
2023/05/12 14:20:40;;;;;;;7.80;7.30;;;;;;;;;;5019004;28;20465;-76
2023/05/12 14:23:08;;;;;;;8.53;7.67;;;;;;;;;;5016160;28;20455;-79
2023/05/12 14:25:36;;;;;;;9.70;7.07;;;;;;;;;;5015127;28;20498;-76
2023/05/12 14:28:03;;;;;;;6.90;6.50;;;;;;;;;;5015126;28;20460;-76
2023/05/12 14:30:33;;;;;;;7.57;6.97;;;;;;;;;;5014717;28;20530;-77
2023/05/12 14:33:01;;;;;;;6.73;6.33;;;;;;;;;;5014968;28;20463;-76
2023/05/12 14:35:28;;;;;;;7.33;6.93;;;;;;;;;;5014608;28;20483;-76
2023/05/12 14:37:57;;;;;;;7.10;6.60;;;;;;;;;;5014501;28;20987;-76
2023/05/12 14:40:26;;;;;;;7.27;6.87;;;;;;;;;;5015497;28;20501;-76
2023/05/12 14:42:54;;;;;;;8.77;7.00;;;;;;;;;;5014559;28;20486;-77
2023/05/12 14:45:24;;;;;;;7.10;6.50;;;;;;;;;;5015757;28;20461;-78
2023/05/12 14:47:52;;;;;;;7.43;6.90;;;;;;;;;;5015583;28;20459;-76
2023/05/12 14:50:19;;;;;;;6.70;6.20;;;;;;;;;;5016623;28;20467;-76